Data for 09/22/2018

Time Sea-Level Adjusted Pressure Absolute Pressure Temperature Relative Humidity Dew Point   
(mb) (inHg) (mb) (inHg) (C) (F) (%) (C) (F)
00:05 1018 30.06 848 25.04 13 55.4 29 -4.5 24
00:10 1018 30.06 848 25.04 13.2 55.8 30 -3.8 25.1
00:15 1018 30.06 848 25.04 13 55.3 30 -4 24.9
00:20 1018 30.06 848 25.04 12.9 55.2 30 -4.3 24.3
00:25 1018 30.06 848 25.04 13 55.3 30 -4.3 24.3
00:30 1018 30.06 848 25.04 12.9 55.1 32 -3.5 25.7
00:35 1018 30.06 848 25.04 12.7 54.8 31 -4 24.8
00:40 1018 30.06 848 25.04 12.5 54.6 32 -3.8 25.2
00:45 1018 30.06 848 25.04 12.2 54 31 -4.2 24.4
00:50 1018 30.06 848 25.04 12.1 53.7 32 -3.9 25
00:55 1018 30.06 848 25.04 12 53.7 31 -4.5 23.9
01:00 1018 30.06 847 25.01 12.1 53.9 31 -4.3 24.3
01:05 1018 30.06 847 25.01 12.2 53.9 31 -4.6 23.7
01:10 1018 30.06 847 25.01 12.3 54.2 30 -4.7 23.6
01:15 1018 30.06 847 25.01 12.5 54.5 30 -4.6 23.7
01:20 1018 30.06 848 25.04 12.4 54.3 30 -4.6 23.7
01:25 1018 30.06 847 25.01 12.3 54.2 31 -4.5 23.9
01:30 1018 30.06 847 25.01 12.3 54.1 31 -4.4 24
01:35 1018 30.06 847 25.01 12 53.7 30 -4.9 23.1
01:40 1018 30.06 847 25.01 12.2 54 31 -4.5 23.8
01:45 1018 30.06 847 25.01 12.1 53.8 30 -4.7 23.5
01:50 1018 30.06 847 25.01 12 53.6 31 -4.5 24
01:55 1018 30.06 847 25.01 11.6 53 32 -4.3 24.3
02:00 1018 30.06 847 25.01 11.4 52.5 34 -3.9 25
02:05 1018 30.06 847 25.01 11.3 52.3 31 -5.1 22.9
02:10 1018 30.06 847 25.01 11.4 52.4 35 -3.5 25.7
02:15 1018 30.06 847 25.01 10.7 51.2 38 -3 26.5
02:20 1018 30.06 847 25.01 10.7 51.2 33 -4.7 23.5
02:25 1018 30.06 847 25.01 10.9 51.7 36 -3.4 25.8
02:30 1018 30.06 847 25.01 10.4 50.7 35 -4.4 24.1
02:35 1018 30.06 847 25.01 10.4 50.7 35 -4.3 24.2
02:40 1018 30.06 847 25.01 10.2 50.4 35 -4.6 23.8
02:45 1018 30.06 847 25.01 10.4 50.7 36 -4.2 24.4
02:50 1018 30.06 847 25.01 10.4 50.8 35 -4.5 24
02:55 1018 30.06 847 25.01 10.5 50.9 35 -4.3 24.3
03:00 1018 30.06 847 25.01 10.6 51.1 33 -4.8 23.4
03:05 1018 30.06 847 25.01 10.8 51.5 34 -4.6 23.8
03:10 1018 30.06 847 25.01 11 51.7 32 -5 22.9
03:15 1018 30.06 847 25.01 11.3 52.3 31 -5.2 22.6
03:20 1018 30.06 847 25.01 11.5 52.7 30 -5.4 22.4
03:25 1018 30.06 847 25.01 11.6 52.9 30 -5.5 22.1
03:30 1018 30.06 847 25.01 11.8 53.3 33 -3.7 25.3
03:35 1018 30.06 847 25.01 11 51.9 33 -4.5 23.9
03:40 1018 30.06 847 25.01 10.7 51.3 33 -4.7 23.6
03:45 1018 30.06 848 25.04 10.9 51.7 30 -5.8 21.6
03:50 1018 30.06 848 25.04 11.4 52.5 30 -5.5 22.1
03:55 1018 30.06 848 25.04 11.8 53.2 28 -5.9 21.3
04:00 1018 30.06 848 25.04 12.1 53.8 29 -5.6 21.9
04:05 1018 30.06 848 25.04 12.3 54.1 27 -6 21.2
04:10 1018 30.06 847 25.01 12.1 53.7 30 -5.1 22.8
04:15 1018 30.06 848 25.04 11.6 52.9 31 -5.1 22.9
04:20 1018 30.06 848 25.04 11.2 52.2 33 -4.5 23.9
04:25 1018 30.06 847 25.01 10.8 51.4 32 -5.3 22.4
04:30 1018 30.06 847 25.01 11.3 52.3 30 -5.5 22.1
04:35 1018 30.06 847 25.01 11.4 52.5 29 -6.2 20.8
04:40 1018 30.06 847 25.01 11.6 52.8 31 -5 22.9
04:45 1018 30.06 847 25.01 11.4 52.4 29 -6.2 20.8
04:50 1018 30.06 847 25.01 11.7 53.1 30 -5.2 22.7
04:55 1018 30.06 847 25.01 11.4 52.4 30 -5.6 22
05:00 1018 30.06 847 25.01 11.3 52.3 30 -5.7 21.7
05:05 1018 30.06 847 25.01 11.4 52.4 30 -5.6 21.8
05:10 1018 30.06 847 25.01 11.3 52.3 31 -5.4 22.2
05:15 1018 30.06 847 25.01 11.2 52.1 29 -6.1 21
05:20 1018 30.06 847 25.01 11.6 52.9 29 -5.9 21.3
05:25 1018 30.06 847 25.01 11.9 53.4 26 -7.1 19.3
05:30 1018 30.06 847 25.01 12.4 54.4 28 -5.7 21.7
05:35 1018 30.06 847 25.01 11.6 52.9 33 -4.1 24.6
05:40 1018 30.06 847 25.01 10.5 51 34 -4.5 23.8
05:45 1018 30.06 847 25.01 10.3 50.5 32 -5.5 22.1
05:50 1018 30.06 847 25.01 10.9 51.5 30 -5.8 21.5
05:55 1018 30.06 847 25.01 11 51.7 32 -4.9 23.2
06:00 1018 30.06 847 25.01 10.7 51.3 30 -6 21.2
06:05 1018 30.06 847 25.01 10.8 51.4 33 -4.9 23.2
06:10 1018 30.06 847 25.01 10.4 50.7 34 -4.9 23.2
06:15 1018 30.06 847 25.01 10.5 51 33 -5.2 22.7
06:20 1018 30.06 847 25.01 10.8 51.4 32 -5.1 22.9
06:25 1018 30.06 847 25.01 10.7 51.2 30 -6 21.2
06:30 1018 30.06 847 25.01 11.1 52 30 -5.9 21.4
06:35 1018 30.06 847 25.01 11.3 52.3 30 -5.8 21.6
06:40 1018 30.06 847 25.01 11.5 52.6 29 -5.7 21.7
06:45 1018 30.06 847 25.01 11.5 52.6 29 -5.8 21.6
06:50 1018 30.06 847 25.01 11.5 52.7 30 -5.3 22.5
06:55 1018 30.06 847 25.01 11.4 52.5 31 -5.2 22.7
07:00 1018 30.06 847 25.01 11.6 52.8 30 -5.3 22.4
07:05 1018 30.06 847 25.01 12 53.5 28 -5.9 21.4
07:10 1018 30.06 847 25.01 12.5 54.5 28 -5.5 22
07:15 1018 30.06 847 25.01 12.7 54.9 27 -5.7 21.7
07:20 1018 30.06 847 25.01 12.9 55.2 27 -5.4 22.4
07:25 1018 30.06 847 25.01 13.1 55.5 27 -5.2 22.6
07:30 1018 30.06 847 25.01 13.2 55.8 26 -5.8 21.5
07:35 1018 30.06 847 25.01 13.6 56.4 26 -5.5 22
07:40 1018 30.06 847 25.01 13.9 57 25 -5.6 21.9
07:45 1018 30.06 847 25.01 13.9 57 23 -6.6 20.1
07:50 1018 30.06 847 25.01 14.3 57.7 25 -5.5 22.1
07:55 1018 30.06 847 25.01 14.4 57.9 24 -6.1 21.1
08:00 1018 30.06 847 25.01 14.6 58.2 24 -5.6 21.9
08:05 1018 30.06 847 25.01 14.6 58.2 26 -4.7 23.5
08:10 1018 30.06 847 25.01 14.6 58.3 24 -5.4 22.2
08:15 1018 30.06 847 25.01 14.8 58.6 24 -5.5 22.1
08:20 1018 30.06 847 25.01 14.8 58.7 24 -5.5 22.2
08:25 1018 30.06 847 25.01 14.8 58.7 24 -5.3 22.4
08:30 1018 30.06 847 25.01 14.9 58.9 24 -5.5 22
08:35 1018 30.06 847 25.01 14.9 58.9 26 -4.2 24.4
08:40 1018 30.06 847 25.01 14.8 58.7 26 -4.4 24.1
08:45 1018 30.06 847 25.01 14.8 58.6 26 -4.5 23.8
08:50 1018 30.06 847 25.01 14.9 58.8 28 -3.2 26.2
08:55 1018 30.06 847 25.01 14.9 58.8 27 -3.8 25.2
09:00 1018 30.06 847 25.01 14.8 58.6 27 -3.8 25.2
09:05 1018 30.06 847 25.01 15 59.1 27 -3.7 25.3
09:10 1018 30.06 847 25.01 15.3 59.5 27 -3.3 26.1
09:15 1018 30.06 847 25.01 15.4 59.7 30 -2.2 28
09:20 1018 30.06 847 25.01 15.1 59.2 33 -1.1 29.9
09:25 1018 30.06 847 25.01 14.9 58.9 32 -1.6 29.1
09:30 1018 30.06 847 25.01 15.3 59.5 31 -1.7 28.9
09:35 1018 30.06 847 25.01 15.5 59.9 34 0 32
09:40 1018 30.06 847 25.01 15.6 60.1 31 -1.4 29.5
09:45 1018 30.06 847 25.01 15.5 60 33 -0.7 30.7
09:50 1018 30.06 847 25.01 15.7 60.3 35 0.5 32.9
09:55 1018 30.06 847 25.01 16.1 61 32 -0.4 31.3
10:00 1018 30.06 847 25.01 16.2 61.2 31 -0.8 30.6
10:05 1018 30.06 847 25.01 16.4 61.5 32 -0.3 31.4
10:10 1018 30.06 847 25.01 16.7 62.1 29 -1.1 30
10:15 1018 30.06 847 25.01 16.8 62.3 27 -2.2 28.1
10:20 1018 30.06 847 25.01 17.1 62.8 27 -2.1 28.3
10:25 1018 30.06 847 25.01 17.6 63.6 29 -0.5 31.1
10:30 1018 30.06 847 25.01 17.8 64.1 28 -0.7 30.7
10:35 1018 30.06 847 25.01 18 64.4 27 -1.2 29.8
10:40 1018 30.06 847 25.01 17.8 64 24 -2.7 27.2
10:45 1018 30.06 847 25.01 17.8 64 24 -2.7 27.1
10:50 1017 30.03 847 25.01 17.8 64.1 26 -1.8 28.7
10:55 1017 30.03 847 25.01 18.1 64.6 25 -2.4 27.8
11:00 1017 30.03 847 25.01 18.6 65.6 27 -0.4 31.3
11:05 1017 30.03 847 25.01 18.8 65.9 25 -1.5 29.3
11:10 1017 30.03 847 25.01 19.2 66.6 24 -1.9 28.6
11:15 1017 30.03 847 25.01 19.3 66.8 23 -2.3 27.8
11:20 1017 30.03 846 24.98 19.3 66.7 25 -0.9 30.4
11:25 1017 30.03 846 24.98 19.6 67.3 22 -2.5 27.4
11:30 1017 30.03 846 24.98 20.1 68.1 18 -4.7 23.6
11:35 1017 30.03 846 24.98 20.6 69 24 -0.8 30.6
11:40 1017 30.03 846 24.98 20.7 69.2 19 -3.8 25.1
11:45 1017 30.03 846 24.98 21 69.8 21 -2.1 28.2
11:50 1017 30.03 846 24.98 21.2 70.1 19 -3.3 26
11:55 1017 30.03 846 24.98 21.3 70.4 22 -1.1 30
12:00 1017 30.03 846 24.98 21.4 70.4 23 -0.4 31.3
12:05 1017 30.03 846 24.98 21.1 70.1 21 -1.6 29.2
12:10 1017 30.03 846 24.98 21.2 70.2 21 -1.8 28.7
12:15 1017 30.03 846 24.98 21.3 70.3 21 -1.7 29
12:20 1017 30.03 846 24.98 21.1 70 20 -2.4 27.6
12:25 1017 30.03 846 24.98 21 69.8 24 -0.2 31.6
12:30 1017 30.03 846 24.98 21.1 70 21 -2 28.4
12:35 1017 30.03 846 24.98 21.4 70.5 24 0.2 32.3
12:40 1017 30.03 846 24.98 21.6 70.9 24 0.2 32.4
12:45 1017 30.03 846 24.98 21.7 71 20 -2.4 27.7
12:50 1016 30 846 24.98 21.8 71.3 18 -3.2 26.3
12:55 1016 30 846 24.98 22 71.5 18 -3 26.6
13:00 1016 30 846 24.98 21.9 71.5 20 -1.9 28.6
13:05 1016 30 846 24.98 22.1 71.7 20 -1.7 28.9
13:10 1016 30 845 24.95 22.2 71.9 19 -2.2 28
13:15 1016 30 845 24.95 22.3 72.1 20 -1.8 28.8
13:20 1016 30 845 24.95 22.3 72.2 19 -2.2 28.1
13:25 1016 30 845 24.95 22.4 72.3 18 -3.2 26.3
13:30 1016 30 845 24.95 22.5 72.5 16 -4.2 24.4
13:35 1016 30 845 24.95 22.5 72.5 15 -5.1 22.7
13:40 1016 30 845 24.95 22.7 72.8 17 -3.8 25.1
13:45 1016 30 845 24.95 22.7 72.9 15 -5.1 22.8
13:50 1016 30 845 24.95 22.7 72.8 15 -4.7 23.5
13:55 1016 30 845 24.95 22.6 72.7 15 -5.5 22.1
14:00 1016 30 845 24.95 22.7 72.8 15 -4.8 23.3
14:05 1016 30 845 24.95 22.7 72.9 16 -4.6 23.8
14:10 1016 30 845 24.95 22.7 72.9 17 -3.7 25.4
14:15 1016 30 845 24.95 22.6 72.8 17 -3.4 25.8
14:20 1016 30 845 24.95 22.6 72.6 16 -4.5 24
14:25 1015 29.97 845 24.95 22.6 72.6 16 -4.1 24.7
14:30 1015 29.97 845 24.95 22.6 72.6 18 -3.1 26.5
14:35 1015 29.97 844 24.92 22.9 73.1 16 -4 24.9
14:40 1015 29.97 844 24.92 23.1 73.5 16 -4.3 24.3
14:45 1015 29.97 844 24.92 23.1 73.5 17 -3.2 26.2
14:50 1015 29.97 844 24.92 23.1 73.6 16 -3.5 25.7
14:55 1015 29.97 844 24.92 23.2 73.7 14 -5.5 22.1
15:00 1015 29.97 844 24.92 23.3 73.9 15 -4.6 23.7
15:05 1015 29.97 844 24.92 23.2 73.8 14 -5.1 22.8
15:10 1015 29.97 844 24.92 23.1 73.6 15 -4.3 24.2
15:15 1015 29.97 844 24.92 23 73.4 19 -1.8 28.8
15:20 1015 29.97 844 24.92 23 73.4 16 -4.2 24.4
15:25 1015 29.97 844 24.92 23.1 73.6 14 -5.8 21.6
15:30 1015 29.97 844 24.92 23.3 74 14 -5.3 22.5
15:35 1015 29.97 844 24.92 23.2 73.7 15 -5 23.1
15:40 1015 29.97 844 24.92 23 73.5 15 -5.2 22.7
15:45 1015 29.97 844 24.92 22.9 73.1 14 -5.5 22.1
15:50 1015 29.97 844 24.92 22.8 73 15 -5.5 22.2
15:55 1015 29.97 844 24.92 22.7 72.8 14 -5.8 21.5
16:00 1015 29.97 844 24.92 22.7 72.9 13 -6.7 19.9
16:05 1015 29.97 844 24.92 22.9 73.2 13 -6.4 20.4
16:10 1015 29.97 844 24.92 22.7 72.9 14 -6.2 20.8
16:15 1015 29.97 844 24.92 22.7 72.8 14 -5.8 21.6
16:20 1015 29.97 844 24.92 22.5 72.5 14 -6.3 20.7
16:25 1015 29.97 844 24.92 22.4 72.3 14 -6.1 21
16:30 1015 29.97 844 24.92 22.3 72.2 15 -5.5 22.2
16:35 1015 29.97 844 24.92 21.9 71.5 16 -4.7 23.6
16:40 1015 29.97 844 24.92 22 71.5 14 -6.4 20.5
16:45 1015 29.97 844 24.92 22.1 71.7 15 -5.4 22.2
16:50 1015 29.97 844 24.92 21.6 70.8 24 0.2 32.3
16:55 1015 29.97 844 24.92 20.6 69 18 -4.2 24.5
17:00 1015 29.97 844 24.92 21.4 70.4 14 -6.9 19.6
17:05 1015 29.97 844 24.92 22.3 72.1 15 -5.8 21.6
17:10 1015 29.97 844 24.92 22.2 72 20 -1.6 29.1
17:15 1015 29.97 844 24.92 21.7 71 18 -3.7 25.4
17:20 1015 29.97 844 24.92 21.9 71.3 15 -6.2 20.8
17:25 1015 29.97 844 24.92 22.1 71.7 16 -5 23
17:30 1015 29.97 844 24.92 21.9 71.3 22 -0.8 30.6
17:35 1015 29.97 844 24.92 21.1 69.9 22 -1.5 29.3
17:40 1015 29.97 844 24.92 21 69.7 18 -3.8 25.1
17:45 1015 29.97 844 24.92 21.3 70.4 19 -3.3 26.1
17:50 1015 29.97 844 24.92 21.5 70.6 17 -4.1 24.6
17:55 1015 29.97 844 24.92 21.7 71 14 -6.9 19.6
18:00 1015 29.97 844 24.92 22.1 71.7 13 -7.4 18.7
18:05 1015 29.97 844 24.92 22.1 71.7 13 -7.3 18.8
18:10 1015 29.97 844 24.92 21.8 71.2 13 -7.3 18.9
18:15 1015 29.97 844 24.92 21.5 70.8 14 -6.8 19.8
18:20 1015 29.97 844 24.92 21.2 70.1 14 -7 19.4
18:25 1015 29.97 844 24.92 20.8 69.4 19 -3.7 25.4
18:30 1015 29.97 844 24.92 19.7 67.5 21 -2.9 26.8
18:35 1015 29.97 844 24.92 19.1 66.3 23 -2.5 27.5
18:40 1015 29.97 844 24.92 18.7 65.7 25 -1.4 29.4
18:45 1015 29.97 844 24.92 18.3 64.9 23 -3.3 26.1
18:50 1015 29.97 844 24.92 19 66.3 21 -3.7 25.4
18:55 1015 29.97 844 24.92 19.5 67.1 23 -2.1 28.1
19:00 1015 29.97 844 24.92 19.2 66.6 20 -4.1 24.6
19:05 1015 29.97 844 24.92 19.8 67.6 18 -5.1 22.8
19:10 1015 29.97 844 24.92 20.4 68.7 18 -4.5 24
19:15 1015 29.97 844 24.92 20.3 68.6 18 -4.7 23.5
19:20 1014 29.94 844 24.92 20.3 68.6 17 -5.6 22
19:25 1015 29.97 844 24.92 20.6 69.1 15 -6.4 20.4
19:30 1015 29.97 844 24.92 20.5 68.9 25 -0.3 31.5
19:35 1015 29.97 844 24.92 18.4 65 27 -1 30.1
19:40 1015 29.97 844 24.92 17.5 63.4 25 -2.8 27
19:45 1015 29.97 844 24.92 17.1 62.8 25 -2.9 26.8
19:50 1015 29.97 844 24.92 16.8 62.3 26 -2.9 26.8
19:55 1015 29.97 844 24.92 16.7 62 26 -2.6 27.3
20:00 1015 29.97 844 24.92 16.4 61.5 27 -2.3 27.8
20:05 1015 29.97 844 24.92 15.7 60.3 30 -1.7 28.9
20:10 1015 29.97 845 24.95 14.9 58.8 31 -1.9 28.6
20:15 1016 30 845 24.95 14.4 58 33 -1.7 29
20:20 1016 30 845 24.95 14.3 57.8 31 -2.7 27.2
20:25 1016 30 845 24.95 14.8 58.6 30 -2.7 27.2
20:30 1016 30 845 24.95 14.9 58.9 30 -2.5 27.5
20:35 1016 30 845 24.95 15.1 59.1 29 -2.5 27.4
20:40 1016 30 845 24.95 15.2 59.4 30 -2.3 27.8
20:45 1016 30 845 24.95 15.3 59.6 29 -2.4 27.6
20:50 1016 30 845 24.95 15.5 60 29 -2.5 27.6
20:55 1016 30 845 24.95 15.6 60 28 -2.8 27
21:00 1016 30 845 24.95 15.6 60.1 28 -2.5 27.5
21:05 1016 30 845 24.95 15.2 59.4 29 -2.4 27.6
21:10 1016 30 845 24.95 14.8 58.7 31 -2.1 28.2
21:15 1016 30 846 24.98 14.6 58.2 32 -1.7 29
21:20 1016 30 846 24.98 14.2 57.6 33 -1.6 29.1
21:25 1017 30.03 846 24.98 14.1 57.4 34 -1.5 29.4
21:30 1017 30.03 846 24.98 14 57.2 35 -1.3 29.6
21:35 1017 30.03 846 24.98 14.1 57.4 35 -1.2 29.8
21:40 1017 30.03 846 24.98 14 57.2 35 -1.1 30.1
21:45 1017 30.03 846 24.98 13.9 57 37 -0.6 30.9
21:50 1017 30.03 846 24.98 13.3 56 39 -0.4 31.2
21:55 1017 30.03 846 24.98 12.8 55 39 -0.8 30.6
22:00 1017 30.03 846 24.98 12.8 55 38 -1.1 30.1
22:05 1017 30.03 846 24.98 13 55.4 38 -1 30.2
22:10 1017 30.03 846 24.98 12.9 55.3 38 -1.1 30.1
22:15 1017 30.03 846 24.98 12.9 55.2 37 -1.2 29.8
22:20 1017 30.03 846 24.98 13.1 55.5 37 -1.2 29.9
22:25 1017 30.03 846 24.98 13.3 56 37 -1 30.3
22:30 1017 30.03 846 24.98 13.5 56.3 36 -1 30.2
22:35 1017 30.03 846 24.98 13.7 56.6 36 -0.9 30.4
22:40 1017 30.03 846 24.98 13.8 56.8 37 -0.7 30.7
22:45 1017 30.03 846 24.98 13.8 56.9 37 -0.6 31
22:50 1017 30.03 847 25.01 13.8 56.8 38 -0.4 31.3
22:55 1017 30.03 847 25.01 13.8 56.8 38 -0.3 31.4
23:00 1017 30.03 847 25.01 13.5 56.3 40 0.3 32.5
23:05 1017 30.03 847 25.01 13 55.3 41 -0 31.9
23:10 1017 30.03 846 24.98 12.9 55.3 41 -0.1 31.8
23:15 1017 30.03 846 24.98 12.8 55 42 0.1 32.3
23:20 1017 30.03 846 24.98 12.4 54.2 44 0.5 32.8
23:25 1017 30.03 846 24.98 12.1 53.7 43 -0.1 31.8
23:30 1017 30.03 846 24.98 12 53.6 44 0.1 32.1
23:35 1017 30.03 846 24.98 11.7 53 45 0.2 32.3
23:40 1017 30.03 846 24.98 11.2 52.2 46 0.1 32.2
23:45 1017 30.03 846 24.98 11 51.8 46 -0 32
23:50 1017 30.03 846 24.98 10.8 51.5 46 -0.3 31.5
23:55 1017 30.03 846 24.98 10.9 51.6 46 -0.3 31.5
24:00 1017 30.03 846 24.98 10.9 51.7 45 -0.4 31.3